Etusivu
METAR-TAF:

METAR-TAF

Lentoasemat :

Clintonville, Wisconsin, Yhdysvallat

Leveyspiiri: 44-36-50N, Pituuspiiri: 088-43-53W, korkeus merenpinnasta: 251 m

Tämänhetkinen sää

Tämä raportti tehtiin 10 minuuttia sitten, kello 17.35 UTC
Tuuli 15 kn pohjoisesta puuskistuen 22 kn:hen
Lämpötila 10°C
Kosteus 46%
Ilmanpaine 1020 hPa
Näkyvyys: 16.1 km
Hajonneita pilviä 4700 ft:n korkeudessa

METAR: KCLI 301735Z AUTO 36015G22KT 10SM BKN047 10/M01 A3013 RMK AO2 T00961014

Aika: 12:45 (17:45 UTC)


TAF: puuttuu

Säähavainnot ja -ennusteet yli 4000 lentoasemalta (METAR- ja TAF-raportit).

Käytössä olevat sääasemat on merkitty karttaan keltaisilla ja punaisilla pisteillä.

Aseta hiiri pisteen päälle nähdäksesi sääaseman nimen.

Klikkaa sitten nähdäksesi säähavainnot ja -ennusteet.

Kartan vaihtaminen: klikkaa mustalla rastilla varustettuja vihreitä pisteitä, niin voit zoomata sisään; viivalla varustettua vihreää pistettä, niin voit zoomata ulos tai vihreitä nuolia, niin pääset viereisille kartoille.


METAR-TAF: